Time;durP1;ratioP1;P1;durP2;ratioP2;P2;SDS_P1;SDS_P2;PMS_P1;PMS_P2;Temp;Humidity;BMP_temperature;BMP_pressure;BME280_temperature;BME280_humidity;BME280_pressure;Samples;Min_cycle;Max_cycle;Signal;HPM_P1;HPM_P2
2021/07/20 00:00:58;;;;;;;22.50;20.17;;;18.70;99.90;;;;;;4992479;28;20428;-66
2021/07/20 00:03:23;;;;;;;26.20;21.60;;;18.70;99.90;;;;;;4992371;28;20245;-66
2021/07/20 00:05:49;;;;;;;21.53;19.37;;;18.70;99.90;;;;;;4993983;28;20172;-65
2021/07/20 00:08:14;;;;;;;21.70;19.40;;;18.70;99.90;;;;;;4996255;28;20179;-65
2021/07/20 00:10:45;;;;;;;22.23;19.83;;;18.60;99.90;;;;;;4996226;28;20167;-67
2021/07/20 00:13:11;;;;;;;24.37;20.20;;;18.50;99.90;;;;;;4996343;28;20198;-66
2021/07/20 00:15:37;;;;;;;24.53;20.73;;;18.50;99.90;;;;;;4996222;28;20860;-65
2021/07/20 00:18:12;;;;;;;22.43;20.03;;;18.50;99.90;;;;;;4996195;28;20485;-66
2021/07/20 00:20:39;;;;;;;25.20;18.50;;;18.50;99.90;;;;;;4996007;28;20505;-66
2021/07/20 00:23:06;;;;;;;25.90;20.70;;;18.40;99.90;;;;;;4996057;28;20831;-66
2021/07/20 00:25:31;;;;;;;23.13;20.63;;;18.40;99.90;;;;;;4996061;28;20804;-66
2021/07/20 00:27:58;;;;;;;23.03;20.57;;;18.40;99.90;;;;;;4995803;28;20448;-66
2021/07/20 00:30:24;;;;;;;21.60;19.30;;;18.40;99.90;;;;;;4995808;28;20514;-66
2021/07/20 00:32:50;;;;;;;21.27;18.97;;;18.30;99.90;;;;;;4995937;28;20419;-66
2021/07/20 00:35:15;;;;;;;28.17;20.03;;;18.30;99.90;;;;;;4995924;28;20437;-66
2021/07/20 00:37:42;;;;;;;22.70;20.00;;;18.30;99.90;;;;;;4995749;28;20661;-65
2021/07/20 00:40:10;;;;;;;25.80;18.90;;;18.20;99.90;;;;;;4995678;28;20226;-65
2021/07/20 00:42:37;;;;;;;23.80;21.17;;;18.20;99.90;;;;;;4995685;28;20426;-65
2021/07/20 00:45:06;;;;;;;21.90;19.50;;;18.20;99.90;;;;;;4995655;28;20462;-66
2021/07/20 00:47:31;;;;;;;23.00;20.50;;;18.10;99.90;;;;;;4995579;28;20442;-66
2021/07/20 00:49:57;;;;;;;21.63;19.40;;;18.00;99.90;;;;;;4995201;28;20928;-66
2021/07/20 00:52:22;;;;;;;21.80;18.53;;;18.00;99.90;;;;;;4994600;28;20163;-66
2021/07/20 00:54:48;;;;;;;20.63;18.43;;;18.00;99.90;;;;;;4995592;28;20215;-65
2021/07/20 00:57:14;;;;;;;23.50;21.00;;;17.90;99.90;;;;;;4995053;28;20635;-66
2021/07/20 00:59:41;;;;;;;21.73;19.53;;;17.90;99.90;;;;;;4995550;28;20621;-66
2021/07/20 01:02:07;;;;;;;21.43;18.97;;;17.80;99.90;;;;;;4995343;28;20449;-65
2021/07/20 01:04:32;;;;;;;27.57;19.97;;;17.70;99.90;;;;;;4995243;28;20451;-66
2021/07/20 01:07:00;;;;;;;25.43;19.23;;;17.70;99.90;;;;;;4995314;28;20191;-66
2021/07/20 01:09:27;;;;;;;21.43;19.30;;;17.60;99.90;;;;;;4994963;28;20172;-66
2021/07/20 01:11:54;;;;;;;23.47;20.27;;;17.60;99.90;;;;;;4995147;28;20553;-66
2021/07/20 01:14:20;;;;;;;21.50;19.30;;;17.60;99.90;;;;;;4995345;28;20431;-66
2021/07/20 01:16:46;;;;;;;22.47;20.10;;;17.60;99.90;;;;;;4994737;28;20577;-65
2021/07/20 01:19:14;;;;;;;23.10;18.97;;;17.60;99.90;;;;;;4994707;28;20529;-66
2021/07/20 01:21:41;;;;;;;20.33;17.93;;;17.60;99.90;;;;;;4995047;28;20427;-66
2021/07/20 01:24:10;;;;;;;20.83;18.83;;;17.60;99.90;;;;;;4994861;28;20967;-66
2021/07/20 01:26:36;;;;;;;22.50;20.07;;;17.60;99.90;;;;;;4994966;28;20445;-66
2021/07/20 01:29:04;;;;;;;22.20;19.87;;;17.60;99.90;;;;;;4994665;28;20407;-66
2021/07/20 01:31:35;;;;;;;23.60;20.67;;;17.50;99.90;;;;;;4994871;28;20634;-65
2021/07/20 01:34:01;;;;;;;23.10;19.23;;;17.50;99.90;;;;;;4994719;28;20497;-66
2021/07/20 01:36:29;;;;;;;20.03;17.60;;;17.50;99.90;;;;;;4994803;28;20442;-66
2021/07/20 01:38:57;;;;;;;21.50;19.30;;;17.40;99.90;;;;;;4994335;28;20795;-66
2021/07/20 01:41:24;;;;;;;21.97;19.60;;;17.40;99.90;;;;;;4994920;28;20826;-66
2021/07/20 01:44:07;;;;;;;22.90;19.33;;;17.40;99.90;;;;;;4994684;28;20865;-66
2021/07/20 01:46:34;;;;;;;22.40;20.10;;;17.40;99.90;;;;;;4994639;28;20474;-65
2021/07/20 01:49:02;;;;;;;23.00;17.90;;;17.30;99.90;;;;;;4994156;28;20434;-65
2021/07/20 01:51:28;;;;;;;20.67;18.17;;;17.20;99.90;;;;;;4994500;28;20429;-65
2021/07/20 01:53:57;;;;;;;21.50;18.67;;;17.20;99.90;;;;;;4994891;28;20423;-66
2021/07/20 01:56:22;;;;;;;26.80;21.80;;;17.20;99.90;;;;;;4993918;28;20516;-65
2021/07/20 01:58:49;;;;;;;21.60;18.23;;;17.20;99.90;;;;;;4993875;28;20636;-66
2021/07/20 02:01:21;;;;;;;21.67;19.37;;;17.20;99.90;;;;;;4993810;28;20474;-66
2021/07/20 02:09:16;;;;;;;23.63;17.20;;;17.10;99.90;;;;;;4992855;28;20789;-65
2021/07/20 02:11:44;;;;;;;23.60;19.00;;;17.10;99.90;;;;;;4975720;28;20415;-65
2021/07/20 02:14:11;;;;;;;21.23;19.00;;;17.00;99.90;;;;;;4993169;28;20427;-66
2021/07/20 02:16:46;;;;;;;21.77;17.97;;;17.00;99.90;;;;;;4993497;28;20458;-65
2021/07/20 02:19:26;;;;;;;19.90;17.33;;;16.90;99.90;;;;;;4992550;28;20430;-66
2021/07/20 02:21:55;;;;;;;28.47;20.10;;;16.80;99.90;;;;;;4993596;28;20435;-66
2021/07/20 02:24:26;;;;;;;18.90;16.90;;;16.80;99.90;;;;;;4993974;28;20979;-66
2021/07/20 02:26:53;;;;;;;27.53;18.90;;;16.80;99.90;;;;;;4993788;28;20454;-66
2021/07/20 02:29:20;;;;;;;20.43;18.17;;;16.80;99.90;;;;;;4992984;28;20505;-66
2021/07/20 02:31:46;;;;;;;19.03;17.03;;;16.80;99.90;;;;;;4993856;28;20930;-66
2021/07/20 02:34:16;;;;;;;20.90;18.80;;;16.80;99.90;;;;;;4993969;28;20425;-66
2021/07/20 02:36:42;;;;;;;21.50;19.00;;;16.80;99.90;;;;;;4993798;28;20450;-66
2021/07/20 02:39:09;;;;;;;21.40;18.50;;;16.80;99.90;;;;;;4993330;28;20429;-66
2021/07/20 02:41:36;;;;;;;23.23;19.23;;;16.70;99.90;;;;;;4993639;28;20172;-66
2021/07/20 02:44:02;;;;;;;24.13;20.10;;;16.70;99.90;;;;;;4992230;28;20510;-65
2021/07/20 02:46:28;;;;;;;20.27;18.07;;;16.60;99.90;;;;;;4993414;28;20438;-65
2021/07/20 02:48:56;;;;;;;21.10;18.50;;;16.50;99.90;;;;;;4993108;28;20828;-66
2021/07/20 02:51:24;;;;;;;22.47;17.90;;;16.50;99.90;;;;;;4992082;28;20419;-65
2021/07/20 02:53:53;;;;;;;20.77;18.03;;;16.40;99.90;;;;;;4993260;28;20483;-65
2021/07/20 02:56:20;;;;;;;24.67;20.50;;;16.40;99.90;;;;;;4993356;28;20462;-65
2021/07/20 02:58:48;;;;;;;23.23;20.57;;;16.40;99.90;;;;;;4993066;28;20411;-66
2021/07/20 03:01:15;;;;;;;21.37;18.10;;;16.30;99.90;;;;;;4992075;28;20959;-66
2021/07/20 03:03:41;;;;;;;20.77;18.57;;;16.30;99.90;;;;;;4993014;28;20454;-64
2021/07/20 03:06:09;;;;;;;20.07;17.93;;;16.30;99.90;;;;;;4993052;28;20815;-66
2021/07/20 03:08:37;;;;;;;22.37;18.80;;;16.30;99.90;;;;;;4991594;28;20172;-65
2021/07/20 03:11:06;;;;;;;20.43;17.60;;;16.20;99.90;;;;;;4993087;28;20419;-65
2021/07/20 03:13:36;;;;;;;23.83;17.77;;;16.20;99.90;;;;;;4993112;28;20414;-65
2021/07/20 03:16:04;;;;;;;21.93;19.57;;;16.10;99.90;;;;;;4993093;28;20453;-64
2021/07/20 03:18:31;;;;;;;21.97;17.20;;;16.10;99.90;;;;;;4992840;28;20423;-66
2021/07/20 03:20:59;;;;;;;19.50;17.37;;;16.10;99.90;;;;;;4993077;28;20473;-66
2021/07/20 03:23:26;;;;;;;21.77;18.67;;;16.00;99.90;;;;;;4992147;28;20481;-65
2021/07/20 03:25:56;;;;;;;21.80;17.67;;;16.00;99.90;;;;;;4992755;28;20428;-66
2021/07/20 03:28:23;;;;;;;19.63;17.10;;;16.00;99.90;;;;;;4992640;28;20418;-65
2021/07/20 03:30:49;;;;;;;19.57;17.47;;;15.90;99.90;;;;;;4991582;28;21011;-66
2021/07/20 03:33:16;;;;;;;20.50;18.23;;;15.90;99.90;;;;;;4992843;28;20506;-66
2021/07/20 03:35:42;;;;;;;18.80;16.80;;;16.00;99.90;;;;;;4992824;28;20289;-66
2021/07/20 03:38:09;;;;;;;20.80;18.53;;;15.90;99.90;;;;;;4992781;28;20426;-65
2021/07/20 03:40:35;;;;;;;20.13;17.97;;;15.90;99.90;;;;;;4992352;28;20425;-66
2021/07/20 03:43:01;;;;;;;19.23;16.27;;;15.90;99.90;;;;;;4993287;28;20484;-65
2021/07/20 03:45:27;;;;;;;20.67;18.47;;;15.90;99.90;;;;;;4991713;28;20827;-65
2021/07/20 03:47:53;;;;;;;19.93;17.00;;;15.80;99.90;;;;;;4992945;28;20441;-65
2021/07/20 03:50:20;;;;;;;18.47;16.57;;;15.80;99.90;;;;;;5014093;28;20424;-65
2021/07/20 03:52:47;;;;;;;20.37;17.17;;;15.80;99.90;;;;;;5018085;28;20410;-66
2021/07/20 03:55:12;;;;;;;19.57;17.47;;;15.80;99.90;;;;;;5017604;28;20795;-66
2021/07/20 03:57:39;;;;;;;19.27;17.27;;;15.80;99.90;;;;;;5021795;23;21034;-67
2021/07/20 04:00:07;;;;;;;22.77;17.37;;;15.80;99.90;;;;;;4983753;28;20167;-67
2021/07/20 04:05:32;;;;;;;20.10;16.50;;;15.80;99.90;;;;;;4991574;28;20466;-67
2021/07/20 04:07:59;;;;;;;19.57;17.50;;;15.80;99.90;;;;;;4992438;28;20541;-68
2021/07/20 04:10:26;;;;;;;18.57;16.57;;;15.80;99.90;;;;;;4992329;28;20430;-68
2021/07/20 04:12:52;;;;;;;21.00;18.73;;;15.80;99.90;;;;;;4992319;28;20797;-67
2021/07/20 04:15:17;;;;;;;20.97;16.97;;;15.80;99.90;;;;;;4992423;28;20418;-67
2021/07/20 04:17:43;;;;;;;18.37;15.80;;;15.80;99.90;;;;;;4992379;28;20192;-67
2021/07/20 04:20:11;;;;;;;19.63;17.70;;;15.90;99.90;;;;;;4992417;28;20175;-67
2021/07/20 04:22:37;;;;;;;21.07;18.10;;;16.00;99.90;;;;;;4983563;28;20172;-67
2021/07/20 04:25:04;;;;;;;21.13;18.20;;;16.10;99.90;;;;;;4972909;28;20459;-66
2021/07/20 04:27:31;;;;;;;22.83;18.43;;;16.10;99.90;;;;;;4972696;28;20442;-68
2021/07/20 04:29:57;;;;;;;25.03;19.00;;;16.10;99.90;;;;;;4972518;28;20438;-67
2021/07/20 04:32:26;;;;;;;20.27;18.07;;;16.20;99.90;;;;;;4972845;28;20416;-67
2021/07/20 04:34:52;;;;;;;25.37;18.80;;;16.20;99.90;;;;;;4972875;28;20667;-67
2021/07/20 04:37:19;;;;;;;27.20;18.30;;;16.30;99.90;;;;;;4971569;28;20443;-67
2021/07/20 04:39:45;;;;;;;19.47;17.57;;;16.30;99.90;;;;;;4972520;28;20917;-67
2021/07/20 04:42:12;;;;;;;17.10;15.30;;;16.50;99.90;;;;;;4972789;28;20435;-67
2021/07/20 04:44:38;;;;;;;17.77;15.90;;;16.50;99.90;;;;;;4972613;28;20206;-67
2021/07/20 04:47:04;;;;;;;19.80;17.00;;;16.60;99.90;;;;;;4972662;28;20432;-67
2021/07/20 04:49:29;;;;;;;21.20;18.80;;;16.70;99.90;;;;;;4961249;28;20177;-68
2021/07/20 04:51:55;;;;;;;19.47;17.37;;;16.70;99.90;;;;;;4953801;28;21299;-67
2021/07/20 04:54:22;;;;;;;18.40;16.47;;;16.80;99.90;;;;;;4956840;28;20181;-67
2021/07/20 04:56:47;;;;;;;19.13;15.80;;;16.90;99.90;;;;;;4956669;29;20223;-67
2021/07/20 04:59:13;;;;;;;20.23;17.43;;;16.90;99.90;;;;;;4956345;28;20786;-67
2021/07/20 05:01:42;;;;;;;21.13;18.10;;;17.00;99.90;;;;;;4956765;28;20613;-68
2021/07/20 05:04:09;;;;;;;18.13;16.33;;;17.00;99.90;;;;;;4956629;28;20228;-67
2021/07/20 05:06:36;;;;;;;23.33;19.17;;;17.10;99.90;;;;;;4956717;28;20439;-67
2021/07/20 05:09:04;;;;;;;21.17;16.77;;;17.20;99.90;;;;;;4956270;28;20424;-67
2021/07/20 05:11:29;;;;;;;17.27;15.40;;;17.40;99.90;;;;;;4973170;28;20522;-68
2021/07/20 05:13:55;;;;;;;18.00;16.10;;;17.50;99.90;;;;;;4975755;28;20466;-67
2021/07/20 05:16:21;;;;;;;18.80;15.27;;;17.70;99.90;;;;;;4975750;28;20699;-67
2021/07/20 05:18:47;;;;;;;18.33;15.63;;;17.80;99.90;;;;;;4975345;28;20425;-67
2021/07/20 05:21:13;;;;;;;15.90;13.73;;;17.90;99.90;;;;;;4975691;28;20419;-67
2021/07/20 05:23:40;;;;;;;18.57;16.67;;;18.00;99.90;;;;;;4973237;28;20435;-67
2021/07/20 05:26:07;;;;;;;19.10;16.77;;;18.00;99.90;;;;;;4975628;28;20180;-67
2021/07/20 05:28:35;;;;;;;16.80;15.00;;;18.10;99.90;;;;;;4969278;28;20429;-68
2021/07/20 05:31:02;;;;;;;19.13;15.27;;;18.20;99.90;;;;;;4975542;28;20420;-67
2021/07/20 05:33:29;;;;;;;20.33;14.57;;;18.20;99.90;;;;;;4975483;28;20415;-67
2021/07/20 05:36:04;;;;;;;18.03;14.80;;;18.30;99.90;;;;;;4971613;28;20420;-67
2021/07/20 05:38:32;;;;;;;16.50;14.80;;;18.40;99.90;;;;;;4955889;29;20507;-68
2021/07/20 05:40:59;;;;;;;17.67;15.20;;;18.60;99.90;;;;;;4955964;28;20870;-67
2021/07/20 05:43:27;;;;;;;16.07;13.90;;;18.70;99.90;;;;;;4955920;28;20412;-68
2021/07/20 05:46:00;;;;;;;17.00;15.20;;;18.70;99.90;;;;;;4959056;28;20440;-68
2021/07/20 05:48:26;;;;;;;17.43;14.23;;;18.80;99.90;;;;;;4965873;28;20530;-68
2021/07/20 05:50:54;;;;;;;17.47;13.30;;;19.00;99.90;;;;;;4974893;28;20431;-67
2021/07/20 05:53:25;;;;;;;15.13;13.53;;;19.00;99.90;;;;;;4975129;28;20426;-67
2021/07/20 05:55:52;;;;;;;16.73;14.17;;;19.10;99.90;;;;;;4974256;28;20829;-67
2021/07/20 05:58:22;;;;;;;15.27;13.67;;;19.30;99.90;;;;;;4965896;28;20456;-67
2021/07/20 06:00:51;;;;;;;14.90;13.00;;;19.40;99.90;;;;;;4973792;28;20762;-67
2021/07/20 06:03:18;;;;;;;15.73;13.10;;;19.50;99.90;;;;;;4970053;28;20436;-68
2021/07/20 06:05:47;;;;;;;16.40;13.27;;;19.60;99.90;;;;;;4958737;28;20842;-68
2021/07/20 06:08:17;;;;;;;16.60;12.40;;;19.70;99.90;;;;;;4955669;28;20548;-68
2021/07/20 06:10:55;;;;;;;17.90;13.50;;;19.80;99.90;;;;;;4959019;28;20964;-67
2021/07/20 06:13:24;;;;;;;16.17;14.43;;;19.90;99.90;;;;;;4959220;28;20435;-68
2021/07/20 06:15:51;;;;;;;17.13;15.07;;;19.90;99.90;;;;;;4962660;28;20806;-67
2021/07/20 06:18:17;;;;;;;14.93;13.37;;;20.00;99.90;;;;;;4955130;28;20467;-68
2021/07/20 06:20:59;;;;;;;15.63;13.80;;;20.00;99.90;;;;;;4966847;28;20936;-67
2021/07/20 06:23:27;;;;;;;16.33;14.50;;;20.20;99.90;;;;;;4963990;28;20677;-67
2021/07/20 06:25:54;;;;;;;16.03;14.27;;;20.20;99.90;;;;;;4955357;28;20543;-67
2021/07/20 06:28:25;;;;;;;15.40;13.80;;;20.40;99.90;;;;;;4954851;29;20424;-68
2021/07/20 06:30:51;;;;;;;14.10;12.57;;;20.40;99.90;;;;;;4955055;29;20840;-67
2021/07/20 06:33:18;;;;;;;15.07;13.47;;;20.70;99.90;;;;;;4959500;28;20447;-67
2021/07/20 06:35:46;;;;;;;16.70;13.50;;;20.80;99.90;;;;;;4954949;28;20428;-66
2021/07/20 06:38:14;;;;;;;14.43;13.03;;;21.00;99.90;;;;;;4954883;28;20444;-66
2021/07/20 06:40:42;;;;;;;14.30;12.87;;;21.20;99.90;;;;;;4954642;28;20839;-66
2021/07/20 06:43:09;;;;;;;13.90;12.50;;;21.40;99.90;;;;;;4954784;28;20436;-67
2021/07/20 06:45:38;;;;;;;17.13;14.30;;;21.40;99.90;;;;;;4955065;28;20482;-65
2021/07/20 06:48:04;;;;;;;18.93;13.67;;;21.60;99.90;;;;;;4967028;28;20521;-66
2021/07/20 06:50:29;;;;;;;18.50;12.70;;;21.70;99.90;;;;;;4957301;28;20428;-66
2021/07/20 06:52:55;;;;;;;15.37;13.77;;;21.80;99.90;;;;;;4963261;28;20267;-66
2021/07/20 06:55:22;;;;;;;16.80;13.70;;;21.70;99.90;;;;;;4973717;28;20279;-66
2021/07/20 06:57:51;;;;;;;19.03;13.70;;;22.00;99.90;;;;;;4972253;28;20211;-65
2021/07/20 07:00:18;;;;;;;16.30;13.10;;;22.10;99.90;;;;;;4973549;28;20428;-66
2021/07/20 07:02:47;;;;;;;15.47;13.00;;;22.20;99.90;;;;;;4967202;28;20432;-66
2021/07/20 07:05:16;;;;;;;13.77;12.03;;;22.30;99.90;;;;;;4954471;28;20468;-66
2021/07/20 07:07:46;;;;;;;14.57;13.10;;;22.30;99.90;;;;;;4954322;28;20475;-66
2021/07/20 07:10:14;;;;;;;15.67;12.40;;;22.40;99.90;;;;;;4954077;28;20507;-66
2021/07/20 07:12:42;;;;;;;13.80;12.40;;;22.30;99.90;;;;;;4954284;28;20767;-65
2021/07/20 07:15:09;;;;;;;18.40;13.70;;;22.20;99.90;;;;;;4953828;28;20424;-66
2021/07/20 07:17:36;;;;;;;13.90;12.60;;;22.30;99.90;;;;;;4954076;28;20503;-66
2021/07/20 07:20:05;;;;;;;17.50;11.90;;;22.50;99.90;;;;;;4954052;28;21004;-65
2021/07/20 07:22:34;;;;;;;13.77;12.27;;;22.50;99.90;;;;;;4961755;28;20458;-66
2021/07/20 07:25:00;;;;;;;16.53;13.40;;;22.70;99.90;;;;;;4973339;28;20521;-66
2021/07/20 07:27:26;;;;;;;13.97;11.30;;;22.70;99.90;;;;;;4973447;28;20479;-66
2021/07/20 07:29:53;;;;;;;14.37;12.93;;;22.80;99.90;;;;;;4973102;28;20851;-66
2021/07/20 07:32:20;;;;;;;16.67;13.37;;;23.00;99.90;;;;;;4973262;28;20447;-66
2021/07/20 07:34:47;;;;;;;15.00;11.77;;;23.10;99.90;;;;;;4973265;28;20424;-66
2021/07/20 07:37:19;;;;;;;12.80;11.50;;;23.20;99.90;;;;;;4973288;28;20440;-66
2021/07/20 07:39:46;;;;;;;13.27;11.77;;;23.30;99.90;;;;;;4972952;28;20815;-66
2021/07/20 07:42:14;;;;;;;13.80;12.40;;;23.30;99.90;;;;;;4973351;28;20435;-66
2021/07/20 07:44:41;;;;;;;15.37;13.03;;;23.40;99.90;;;;;;4973196;28;20546;-66
2021/07/20 07:47:08;;;;;;;13.77;12.43;;;23.50;99.90;;;;;;4973191;28;20439;-65
2021/07/20 07:49:35;;;;;;;11.90;10.60;;;23.60;99.90;;;;;;4972722;28;20793;-66
2021/07/20 07:52:02;;;;;;;14.07;12.67;;;23.90;99.90;;;;;;4973227;28;20578;-66
2021/07/20 07:54:28;;;;;;;12.57;11.30;;;24.10;99.90;;;;;;4973131;28;20451;-66
2021/07/20 07:56:53;;;;;;;12.90;11.17;;;24.10;99.90;;;;;;4972959;28;20478;-66
2021/07/20 07:59:23;;;;;;;13.27;11.60;;;24.30;99.90;;;;;;4972743;28;20436;-66
2021/07/20 08:01:51;;;;;;;13.63;11.50;;;24.40;99.90;;;;;;4973139;28;20661;-67
2021/07/20 08:04:24;;;;;;;15.83;14.33;;;24.50;99.90;;;;;;4972908;28;20475;-66
2021/07/20 08:06:52;;;;;;;16.30;14.07;;;25.00;99.90;;;;;;4973012;28;20451;-65
2021/07/20 08:09:20;;;;;;;15.23;11.40;;;25.20;99.90;;;;;;4972657;28;20423;-66
2021/07/20 08:11:47;;;;;;;20.23;12.30;;;25.20;99.90;;;;;;4972921;28;20420;-67
2021/07/20 08:14:14;;;;;;;15.63;11.87;;;25.30;99.90;;;;;;4972978;28;20423;-66
2021/07/20 08:16:44;;;;;;;13.60;11.97;;;25.40;99.90;;;;;;4972738;28;20502;-66
2021/07/20 08:19:11;;;;;;;13.63;12.00;;;25.40;99.90;;;;;;4972771;28;20423;-66
2021/07/20 08:21:38;;;;;;;13.30;11.63;;;25.50;99.90;;;;;;4972159;28;20420;-66
2021/07/20 08:24:03;;;;;;;13.03;11.67;;;25.90;99.90;;;;;;4953825;29;20515;-65
2021/07/20 08:26:34;;;;;;;12.70;11.40;;;26.00;99.90;;;;;;4954503;28;20813;-66
2021/07/20 08:29:10;;;;;;;13.23;11.40;;;26.30;99.90;;;;;;4956954;28;20952;-66
2021/07/20 08:31:41;;;;;;;11.70;10.47;;;26.70;99.90;;;;;;4957614;28;20487;-65
2021/07/20 08:34:09;;;;;;;12.00;10.23;;;26.50;99.90;;;;;;4957176;28;20946;-65
2021/07/20 08:36:39;;;;;;;11.67;10.43;;;26.60;99.30;;;;;;4956450;28;20495;-65
2021/07/20 08:39:07;;;;;;;11.60;10.50;;;26.50;99.60;;;;;;4990784;28;20442;-65
2021/07/20 08:41:32;;;;;;;12.20;11.10;;;26.70;99.10;;;;;;4995608;28;20433;-65
2021/07/20 08:44:36;;;;;;;12.53;11.13;;;27.10;99.30;;;;;;4995693;28;20458;-66
2021/07/20 08:47:14;;;;;;;11.60;10.50;;;27.50;97.90;;;;;;4993767;28;20665;-65
2021/07/20 08:50:25;;;;;;;10.17;9.17;;;27.50;97.10;;;;;;4969080;28;20920;-65
2021/07/20 08:53:05;;;;;;;9.93;9.03;;;27.50;95.80;;;;;;4974795;28;20858;-65
2021/07/20 08:55:41;;;;;;;10.57;9.57;;;27.00;95.50;;;;;;4976088;28;20930;-66
2021/07/20 08:58:21;;;;;;;10.53;9.37;;;26.80;96.10;;;;;;4975807;28;20510;-65
2021/07/20 09:00:48;;;;;;;12.80;11.50;;;27.30;95.80;;;;;;4975892;28;20846;-66
2021/07/20 09:03:34;;;;;;;12.13;10.80;;;27.60;95.40;;;;;;4956570;28;20431;-65
2021/07/20 09:06:07;;;;;;;12.70;11.50;;;27.80;94.80;;;;;;4956955;28;20447;-66
2021/07/20 09:08:44;;;;;;;11.53;10.50;;;28.00;94.40;;;;;;4956078;28;20427;-66
2021/07/20 09:11:12;;;;;;;12.80;11.60;;;28.10;94.70;;;;;;4956570;28;20427;-65
2021/07/20 09:13:42;;;;;;;11.90;10.80;;;28.40;94.40;;;;;;4956325;28;20420;-65
2021/07/20 09:16:34;;;;;;;13.90;11.37;;;28.70;94.50;;;;;;4956280;28;20421;-66
2021/07/20 09:19:22;;;;;;;12.33;10.80;;;28.70;92.40;;;;;;4951212;29;20535;-66
2021/07/20 09:21:51;;;;;;;13.33;11.87;;;28.90;92.30;;;;;;4951954;28;20425;-66
2021/07/20 09:24:29;;;;;;;13.93;12.37;;;28.80;92.60;;;;;;4975130;28;20814;-66
2021/07/20 09:27:06;;;;;;;14.97;13.50;;;28.70;92.80;;;;;;4975406;28;20471;-66
2021/07/20 09:29:36;;;;;;;14.53;11.97;;;28.90;92.60;;;;;;4975090;28;20419;-65
2021/07/20 09:32:06;;;;;;;11.70;10.70;;;28.50;91.80;;;;;;4975584;28;20424;-65
2021/07/20 09:34:59;;;;;;;14.50;13.10;;;28.80;91.60;;;;;;4975431;28;20514;-65
2021/07/20 09:37:35;;;;;;;13.43;12.07;;;29.10;91.70;;;;;;4974958;28;20460;-66
2021/07/20 09:40:17;;;;;;;14.57;13.37;;;29.10;91.50;;;;;;4974921;28;20434;-65
2021/07/20 09:43:06;;;;;;;13.37;12.10;;;29.10;90.30;;;;;;4975299;28;20904;-65
2021/07/20 09:45:39;;;;;;;14.30;12.77;;;29.20;90.20;;;;;;4974812;28;20463;-66
2021/07/20 09:48:24;;;;;;;13.40;11.90;;;29.40;90.40;;;;;;4974991;28;20447;-66
2021/07/20 09:51:08;;;;;;;14.23;12.80;;;29.60;90.00;;;;;;4955932;29;20417;-65
2021/07/20 09:53:36;;;;;;;13.53;12.23;;;30.60;87.90;;;;;;4956116;29;20487;-66
2021/07/20 09:56:40;;;;;;;13.07;11.87;;;31.20;83.10;;;;;;4955409;29;20420;-66
2021/07/20 09:59:41;;;;;;;15.23;13.73;;;31.00;82.80;;;;;;4956169;29;20515;-66
2021/07/20 10:02:14;;;;;;;21.57;16.60;;;30.70;82.60;;;;;;4955491;28;20432;-66
2021/07/20 10:05:19;;;;;;;18.63;15.70;;;31.60;82.20;;;;;;4955495;28;20494;-65
2021/07/20 10:07:59;;;;;;;16.17;14.77;;;31.80;78.70;;;;;;4955398;28;20432;-65
2021/07/20 10:10:37;;;;;;;18.53;15.37;;;32.80;75.10;;;;;;4957835;28;20428;-65
2021/07/20 10:13:20;;;;;;;16.53;15.13;;;32.60;75.10;;;;;;4974537;28;20411;-66
2021/07/20 10:16:08;;;;;;;16.73;15.20;;;32.70;73.50;;;;;;4974596;28;20431;-66
2021/07/20 10:18:50;;;;;;;14.13;12.93;;;32.00;72.30;;;;;;4971670;28;20478;-67
2021/07/20 10:21:20;;;;;;;15.43;14.00;;;31.10;73.80;;;;;;4955172;29;20416;-66
2021/07/20 10:23:55;;;;;;;16.47;14.70;;;31.70;74.30;;;;;;4972606;28;20431;-66
2021/07/20 10:26:29;;;;;;;16.47;14.30;;;32.10;71.90;;;;;;4974427;28;20936;-65
2021/07/20 10:29:05;;;;;;;16.30;14.77;;;33.40;73.30;;;;;;4960470;28;20530;-65
2021/07/20 10:31:55;;;;;;;17.10;15.60;;;34.40;67.70;;;;;;4954672;28;20463;-66
2021/07/20 10:34:25;;;;;;;16.53;14.90;;;34.70;64.90;;;;;;4955022;29;20422;-65
2021/07/20 10:36:53;;;;;;;16.27;14.70;;;34.10;65.40;;;;;;4954848;28;20441;-65
2021/07/20 10:39:22;;;;;;;17.23;15.40;;;34.20;63.90;;;;;;4954605;28;20933;-66
2021/07/20 10:42:07;;;;;;;17.77;16.03;;;35.50;61.20;;;;;;4954808;28;20424;-65
2021/07/20 10:45:21;;;;;;;17.63;16.03;;;35.10;61.20;;;;;;4954722;28;20455;-65
2021/07/20 10:47:57;;;;;;;16.80;15.10;;;33.80;62.90;;;;;;4952540;29;20449;-66
2021/07/20 10:50:32;;;;;;;15.53;14.03;;;32.90;63.70;;;;;;4971930;28;20431;-66
2021/07/20 10:53:01;;;;;;;16.80;15.10;;;33.10;63.60;;;;;;4973763;28;20451;-66
2021/07/20 10:55:53;;;;;;;17.13;15.47;;;34.60;60.30;;;;;;4973872;28;20502;-66
2021/07/20 10:58:34;;;;;;;16.70;15.20;;;36.80;57.30;;;;;;4973030;28;20453;-66
2021/07/20 11:01:19;;;;;;;16.10;14.73;;;37.10;56.70;;;;;;4959067;28;20428;-65
2021/07/20 11:03:47;;;;;;;16.43;15.03;;;38.00;54.30;;;;;;4954356;29;20409;-65
2021/07/20 11:06:16;;;;;;;18.13;16.50;;;36.30;54.40;;;;;;4954406;29;20436;-66
2021/07/20 11:08:45;;;;;;;15.67;14.07;;;34.90;56.50;;;;;;4954198;29;20425;-65
2021/07/20 11:11:34;;;;;;;15.30;13.90;;;34.50;57.20;;;;;;4953961;29;20413;-64
2021/07/20 11:14:02;;;;;;;15.93;14.30;;;35.40;56.10;;;;;;4954419;29;20428;-65
2021/07/20 11:16:30;;;;;;;16.27;14.97;;;37.10;53.90;;;;;;4954304;29;20447;-65
2021/07/20 11:18:58;;;;;;;14.40;13.00;;;37.90;52.10;;;;;;4954007;29;20429;-66
2021/07/20 11:21:27;;;;;;;17.20;15.57;;;38.20;51.10;;;;;;4954199;29;20420;-66
2021/07/20 11:23:54;;;;;;;14.83;13.63;;;38.10;50.20;;;;;;4952930;29;20918;-65
2021/07/20 11:26:23;;;;;;;15.80;14.50;;;37.50;50.70;;;;;;4954114;29;20524;-66
2021/07/20 11:28:50;;;;;;;15.03;13.93;;;35.60;51.80;;;;;;4953934;29;20733;-66
2021/07/20 11:31:42;;;;;;;15.60;14.20;;;36.10;51.40;;;;;;4954160;29;20420;-63
2021/07/20 11:34:13;;;;;;;14.97;13.53;;;35.60;51.10;;;;;;4954174;29;20515;-63
2021/07/20 11:36:41;;;;;;;17.77;15.90;;;36.70;51.50;;;;;;4954040;28;20436;-63
2021/07/20 11:39:11;;;;;;;15.27;13.97;;;34.60;52.50;;;;;;4953735;29;20429;-63
2021/07/20 11:41:50;;;;;;;16.50;14.97;;;33.20;53.70;;;;;;4954044;29;20803;-65
2021/07/20 11:44:28;;;;;;;15.60;14.37;;;32.10;56.10;;;;;;4954084;29;20460;-66
2021/07/20 11:47:00;;;;;;;16.50;14.97;;;33.10;55.30;;;;;;4953925;29;20460;-66
2021/07/20 11:49:41;;;;;;;16.37;14.97;;;34.40;53.00;;;;;;4953666;29;20436;-65
2021/07/20 11:52:17;;;;;;;16.13;14.70;;;34.60;52.10;;;;;;4953933;29;20452;-66
2021/07/20 11:55:08;;;;;;;15.43;14.20;;;36.60;51.30;;;;;;4953994;29;20474;-66
2021/07/20 11:58:12;;;;;;;15.67;14.37;;;38.00;49.90;;;;;;4953577;29;20459;-65
2021/07/20 12:00:59;;;;;;;15.27;13.87;;;38.40;48.40;;;;;;4954985;28;20925;-64
2021/07/20 12:03:34;;;;;;;15.87;14.57;;;37.80;47.70;;;;;;4957719;29;20428;-64
2021/07/20 12:06:28;;;;;;;14.87;13.50;;;37.00;48.00;;;;;;4957703;29;20466;-65
2021/07/20 12:09:09;;;;;;;16.17;14.80;;;38.40;48.10;;;;;;4957465;29;20423;-65
2021/07/20 12:11:41;;;;;;;15.47;14.17;;;39.40;45.30;;;;;;4957084;29;21066;-65
2021/07/20 12:14:08;;;;;;;15.27;14.07;;;41.70;44.00;;;;;;4957491;29;20421;-65
2021/07/20 12:16:45;;;;;;;16.60;15.07;;;41.60;41.10;;;;;;4957436;29;21068;-65
2021/07/20 12:19:13;;;;;;;14.87;13.63;;;41.10;41.30;;;;;;4957159;29;20475;-65
2021/07/20 12:21:42;;;;;;;16.47;14.93;;;41.80;41.30;;;;;;4956140;29;20429;-66
2021/07/20 12:24:10;;;;;;;14.60;13.50;;;43.00;39.90;;;;;;4957204;29;20542;-64
2021/07/20 12:26:37;;;;;;;14.40;13.40;;;43.70;39.40;;;;;;4957137;29;20531;-63
2021/07/20 12:29:07;;;;;;;14.63;13.33;;;42.90;40.70;;;;;;4956994;29;20435;-63
2021/07/20 12:31:32;;;;;;;15.03;13.73;;;41.60;39.30;;;;;;4957278;29;20423;-63
2021/07/20 12:33:59;;;;;;;15.67;14.40;;;38.50;42.20;;;;;;4957137;29;20836;-63
2021/07/20 12:36:25;;;;;;;16.57;15.03;;;36.30;44.20;;;;;;4957138;28;20197;-63
2021/07/20 12:39:12;;;;;;;16.47;14.97;;;37.30;44.60;;;;;;4956749;29;20420;-63
2021/07/20 12:41:50;;;;;;;14.80;13.50;;;39.70;41.90;;;;;;4957016;29;20176;-64
2021/07/20 12:44:17;;;;;;;14.83;13.67;;;41.00;41.60;;;;;;4956947;29;20463;-63
2021/07/20 12:46:43;;;;;;;14.67;13.57;;;42.20;39.40;;;;;;4956921;29;20503;-64
2021/07/20 12:49:13;;;;;;;14.13;12.93;;;43.40;37.90;;;;;;4956442;29;20416;-63
2021/07/20 12:51:51;;;;;;;15.70;14.50;;;44.20;37.30;;;;;;4957069;29;20833;-64
2021/07/20 12:54:36;;;;;;;15.20;13.93;;;44.50;36.50;;;;;;4957034;29;20420;-64